Columbus Municipal Airport
KOLU : now visible

Airfield :











YOU CAN JOIN US ON...

 
LOGIN :

Register | Disclaimer

   EN    FR    IT 

 









Legend :    VFR   Marginal VFR   IFR   Intensive IFR   Very Intensive IFR
Visi :
Ceiling :
>= 8 km
>= 3000ft
5 to 8 km
1000 to 3000 ft
1500m to 5 km
500 to 1000 ft
800 to 1500m
200 to 500 ft
< 800m
< 200 ft
Symbols :   Thunderstorms  Fog  Heavy snow  Heavy precipitations  Wind > 20 kt






- Airport Elevation : 1447 ft


KOLU - Columbus Municipal

CURRENT METAR :
  • 280556Z AUTO 32012G23KT 10SM CLR M12/M16 A3009 RMK AO2 PK WND 32027/0500 SLP213 60000 T11171156 11089 21117 401171117 53039 FZRANO

EXPIRED METARs :
  • 280456Z AUTO 32018G26KT 10SM CLR M11/M14 A3005 RMK AO2 PK WND 33029/0405 SLP198 T11061144 FZRANO
  • 280356Z AUTO 32025G29KT 10SM CLR M10/M14 A3001 RMK AO2 PK WND 32031/0342 SLP184 T11001139 FZRANO
  • 280256Z AUTO 33019G29KT 10SM FEW021 M09/M13 A2997 RMK AO2 PK WND 32033/0209 SLP170 60000 T10941133 51036 FZRANO
  • 280156Z AUTO 33025G31KT 10SM FEW023 SCT120 M09/M13 A2996 RMK AO2 PK WND 33038/0059 SNE06 SLP165 P0000 T10941133 FZRANO
  • 280118Z AUTO 32021G27KT 10SM SCT021 BKN120 M09/M13 A2993 RMK AO2 PK WND 33038/0059 SNE06 P0000 FZRANO
  • 280056Z AUTO 32028G32KT 9SM -SN BKN020 OVC065 M09/M13 A2989 RMK AO2 PK WND 32032/0055 SLP141 P0000 T10941133 FZRANO

TAF N/A
KZMP FIR / North America



MET'MAP, your aeronautical weather chart ! - Copyright ORBIFLY December 2007 - Disclaimer

ORBIFLY MET'MAP TEAM :

Programming & Development : Alexandra Zaïnal
Original concept : Baudouin d'Aumeries
Technical & hardware support : Manuel Goepfert
Assistance : Marc-Olivier Méhu




SOURCES & CREDITS :

   NOAA       Earth
Advisory